Time;durP1;ratioP1;P1;durP2;ratioP2;P2;SDS_P1;SDS_P2;PMS_P1;PMS_P2;Temp;Humidity;BMP_temperature;BMP_pressure;BME280_temperature;BME280_humidity;BME280_pressure;Samples;Min_cycle;Max_cycle;Signal;HPM_P1;HPM_P2
2023/04/13 00:01:18;;;;;;;4.35;1.80;;;;;;;;;;4955838;28;20035;-66
2023/04/13 00:03:44;;;;;;;3.95;1.98;;;;;;;;;;4955840;28;20057;-66
2023/04/13 00:06:11;;;;;;;4.25;1.90;;;;;;;;;;4954740;28;20027;-67
2023/04/13 00:08:36;;;;;;;4.20;2.17;;;;;;;;;;4955421;29;20098;-68
2023/04/13 00:11:02;;;;;;;4.53;1.83;;;;;;;;;;4955632;29;20102;-65
2023/04/13 00:13:27;;;;;;;3.85;1.88;;;;;;;;;;4955358;29;20031;-67
2023/04/13 00:15:54;;;;;;;3.67;1.70;;;;;;;;;;4955305;29;20029;-67
2023/04/13 00:18:19;;;;;;;3.80;1.85;;;;;;;;;;4954526;29;20031;-65
2023/04/13 00:20:45;;;;;;;5.07;1.83;;;;;;;;;;4955005;28;20031;-68
2023/04/13 00:23:11;;;;;;;4.25;1.80;;;;;;;;;;4974585;28;20478;-66
2023/04/13 00:25:36;;;;;;;4.93;1.52;;;;;;;;;;4974637;28;20052;-67
2023/04/13 00:28:05;;;;;;;4.38;1.60;;;;;;;;;;4973596;28;20018;-65
2023/04/13 00:30:31;;;;;;;3.70;1.45;;;;;;;;;;4974350;28;20026;-66
2023/04/13 00:32:56;;;;;;;4.07;1.65;;;;;;;;;;4974349;28;20085;-65
2023/04/13 00:35:25;;;;;;;3.37;1.40;;;;;;;;;;4974233;28;20030;-68
2023/04/13 00:37:51;;;;;;;3.63;1.48;;;;;;;;;;4973663;28;20029;-66
2023/04/13 00:40:16;;;;;;;3.47;1.60;;;;;;;;;;4974541;28;20027;-67
2023/04/13 00:42:42;;;;;;;4.03;1.52;;;;;;;;;;4974937;28;20034;-66
2023/04/13 00:45:08;;;;;;;3.83;1.50;;;;;;;;;;4974367;28;20513;-66
2023/04/13 00:47:34;;;;;;;3.10;1.27;;;;;;;;;;4974097;28;20161;-67
2023/04/13 00:50:00;;;;;;;3.50;1.30;;;;;;;;;;4974201;28;20031;-67
2023/04/13 00:52:25;;;;;;;3.33;1.17;;;;;;;;;;4973083;28;20077;-69
2023/04/13 00:54:50;;;;;;;3.23;1.17;;;;;;;;;;4974144;28;20109;-65
2023/04/13 00:57:16;;;;;;;2.85;1.20;;;;;;;;;;4973341;28;20027;-67
2023/04/13 00:59:41;;;;;;;3.88;1.15;;;;;;;;;;4973836;28;20101;-68
2023/04/13 01:02:06;;;;;;;3.50;1.00;;;;;;;;;;4973542;28;20042;-66
2023/04/13 01:04:32;;;;;;;2.35;0.95;;;;;;;;;;4973565;28;20023;-67
2023/04/13 01:07:08;;;;;;;2.90;1.10;;;;;;;;;;4973166;28;20023;-69
2023/04/13 01:09:39;;;;;;;2.33;0.90;;;;;;;;;;4974113;28;20015;-66
2023/04/13 01:12:10;;;;;;;2.40;0.90;;;;;;;;;;4972565;28;20451;-67
2023/04/13 01:14:37;;;;;;;2.40;0.90;;;;;;;;;;4973638;28;20031;-66
2023/04/13 01:17:06;;;;;;;2.33;0.98;;;;;;;;;;4973130;28;20089;-66
2023/04/13 01:19:50;;;;;;;3.75;1.15;;;;;;;;;;4973521;28;20550;-67
2023/04/13 01:22:17;;;;;;;2.65;0.90;;;;;;;;;;4973619;28;20050;-67
2023/04/13 01:24:52;;;;;;;3.03;1.00;;;;;;;;;;4973725;28;20109;-66
2023/04/13 01:27:21;;;;;;;2.42;1.00;;;;;;;;;;4973016;28;20022;-65
2023/04/13 01:29:47;;;;;;;2.53;0.90;;;;;;;;;;4973388;28;20022;-65
2023/04/13 01:32:14;;;;;;;2.53;0.80;;;;;;;;;;4973325;28;20466;-66
2023/04/13 01:34:39;;;;;;;2.17;0.80;;;;;;;;;;4973387;28;20092;-67
2023/04/13 01:37:05;;;;;;;2.45;0.85;;;;;;;;;;4972438;28;20035;-66
2023/04/13 01:39:33;;;;;;;2.85;0.85;;;;;;;;;;4973053;28;20140;-64
2023/04/13 01:41:59;;;;;;;3.42;1.10;;;;;;;;;;4972759;28;20431;-65
2023/04/13 01:44:26;;;;;;;2.10;0.80;;;;;;;;;;4971812;28;20116;-66
2023/04/13 01:46:54;;;;;;;1.98;0.82;;;;;;;;;;4972878;28;20130;-65
2023/04/13 01:49:21;;;;;;;1.88;0.70;;;;;;;;;;4972910;28;20218;-66
2023/04/13 01:51:49;;;;;;;2.47;0.80;;;;;;;;;;4974139;28;20019;-65
2023/04/13 01:54:16;;;;;;;2.50;0.80;;;;;;;;;;4973694;28;20054;-67
2023/04/13 01:56:42;;;;;;;2.70;1.10;;;;;;;;;;4973272;28;20376;-66
2023/04/13 01:59:08;;;;;;;2.40;0.80;;;;;;;;;;4973248;28;20085;-69
2023/04/13 02:01:33;;;;;;;3.33;0.90;;;;;;;;;;4977244;28;20026;-66
2023/04/13 02:03:59;;;;;;;3.80;0.98;;;;;;;;;;4977362;28;20031;-68
2023/04/13 02:06:24;;;;;;;2.58;0.88;;;;;;;;;;4985481;28;20391;-66
2023/04/13 02:08:50;;;;;;;2.80;0.70;;;;;;;;;;4984109;28;20403;-65
2023/04/13 02:11:15;;;;;;;2.93;0.80;;;;;;;;;;4983406;28;20105;-66
2023/04/13 02:13:40;;;;;;;3.28;0.85;;;;;;;;;;4973785;28;20031;-65
2023/04/13 02:16:06;;;;;;;2.92;0.90;;;;;;;;;;4973422;28;20023;-65
2023/04/13 02:18:32;;;;;;;2.72;0.80;;;;;;;;;;4972444;28;20023;-65
2023/04/13 02:21:08;;;;;;;2.78;0.70;;;;;;;;;;4969480;28;20106;-67
2023/04/13 02:23:34;;;;;;;2.47;0.70;;;;;;;;;;4953266;29;20023;-67
2023/04/13 02:25:59;;;;;;;2.80;0.70;;;;;;;;;;4953605;28;20026;-65
2023/04/13 02:28:28;;;;;;;2.45;0.73;;;;;;;;;;4952895;29;20015;-67
2023/04/13 02:30:53;;;;;;;3.20;0.80;;;;;;;;;;4953385;29;20090;-66
2023/04/13 02:33:20;;;;;;;3.30;0.80;;;;;;;;;;4953103;29;20483;-67
2023/04/13 02:35:45;;;;;;;;;;;;;;;;;;4953467;29;20047;-68
2023/04/13 02:38:10;;;;;;;2.40;0.73;;;;;;;;;;4958215;28;19949;-68
2023/04/13 02:40:37;;;;;;;3.37;0.80;;;;;;;;;;4973616;28;20102;-68
2023/04/13 02:43:03;;;;;;;3.70;0.98;;;;;;;;;;4970743;28;20042;-65
2023/04/13 02:45:28;;;;;;;3.20;1.00;;;;;;;;;;4971247;28;20022;-65
2023/04/13 02:47:53;;;;;;;3.50;0.88;;;;;;;;;;4971498;28;20058;-67
2023/04/13 02:50:18;;;;;;;3.17;0.77;;;;;;;;;;4972256;28;20054;-67
2023/04/13 02:52:44;;;;;;;2.35;0.77;;;;;;;;;;4972130;28;20474;-66
2023/04/13 02:55:09;;;;;;;3.00;0.70;;;;;;;;;;4972184;28;20053;-66
2023/04/13 02:57:34;;;;;;;2.42;0.60;;;;;;;;;;4971929;28;20029;-67
2023/04/13 02:59:59;;;;;;;3.07;0.70;;;;;;;;;;4972855;28;20105;-66
2023/04/13 03:02:28;;;;;;;2.53;0.87;;;;;;;;;;4970530;28;20082;-66
2023/04/13 03:04:53;;;;;;;2.85;0.70;;;;;;;;;;4971774;28;20030;-65
2023/04/13 03:07:18;;;;;;;1.35;0.50;;;;;;;;;;4971179;28;20019;-67
2023/04/13 03:09:44;;;;;;;1.85;0.77;;;;;;;;;;4971688;28;20103;-66
2023/04/13 03:12:09;;;;;;;2.38;0.65;;;;;;;;;;4972007;28;20018;-67
2023/04/13 03:14:35;;;;;;;1.48;0.60;;;;;;;;;;4971929;28;20015;-67
2023/04/13 03:17:01;;;;;;;2.10;0.70;;;;;;;;;;4971073;28;20047;-66
2023/04/13 03:19:27;;;;;;;1.65;0.55;;;;;;;;;;4971610;28;20015;-66
2023/04/13 03:21:52;;;;;;;2.33;0.70;;;;;;;;;;4971513;28;20031;-65
2023/04/13 03:24:18;;;;;;;2.65;0.70;;;;;;;;;;4971436;28;20035;-70
2023/04/13 03:26:43;;;;;;;1.93;0.63;;;;;;;;;;4971397;28;20105;-66
2023/04/13 03:29:08;;;;;;;2.42;0.60;;;;;;;;;;4971717;28;20081;-67
2023/04/13 03:31:33;;;;;;;2.03;0.57;;;;;;;;;;4974507;28;20023;-66
2023/04/13 03:33:58;;;;;;;2.75;0.50;;;;;;;;;;4975331;28;20111;-66
2023/04/13 03:36:26;;;;;;;1.80;0.60;;;;;;;;;;4975073;28;20359;-66
2023/04/13 03:38:51;;;;;;;2.00;0.50;;;;;;;;;;4975797;28;20023;-66
2023/04/13 03:41:17;;;;;;;1.40;0.50;;;;;;;;;;4975923;28;20382;-66
2023/04/13 03:43:43;;;;;;;2.35;0.60;;;;;;;;;;4975379;28;20107;-66
2023/04/13 03:46:08;;;;;;;1.70;0.45;;;;;;;;;;4974813;28;20407;-65
2023/04/13 03:48:33;;;;;;;0.88;0.40;;;;;;;;;;4975015;28;20031;-65
2023/04/13 03:50:58;;;;;;;0.98;0.40;;;;;;;;;;4975244;28;20019;-65
2023/04/13 03:53:24;;;;;;;2.22;0.40;;;;;;;;;;4975538;28;20138;-67
2023/04/13 03:55:49;;;;;;;1.47;0.50;;;;;;;;;;4975185;28;20019;-65
2023/04/13 03:58:15;;;;;;;1.70;0.52;;;;;;;;;;4974650;28;20023;-67
2023/04/13 04:00:40;;;;;;;1.60;0.50;;;;;;;;;;4975224;28;20081;-67
2023/04/13 04:03:05;;;;;;;1.02;0.40;;;;;;;;;;4974829;28;20569;-67
2023/04/13 04:05:30;;;;;;;1.77;0.47;;;;;;;;;;4975163;28;20023;-67
2023/04/13 04:07:55;;;;;;;1.30;0.43;;;;;;;;;;4975132;28;20054;-65
2023/04/13 04:10:21;;;;;;;2.37;0.50;;;;;;;;;;4975114;28;20022;-66
2023/04/13 04:12:46;;;;;;;0.60;0.40;;;;;;;;;;4974956;28;20026;-67
2023/04/13 04:15:11;;;;;;;2.50;0.45;;;;;;;;;;4975200;28;20054;-68
2023/04/13 04:17:36;;;;;;;4.93;0.68;;;;;;;;;;4974634;28;20427;-67
2023/04/13 04:20:02;;;;;;;2.08;0.52;;;;;;;;;;4974661;28;20026;-66
2023/04/13 04:22:28;;;;;;;2.13;0.50;;;;;;;;;;4956004;28;20484;-68
2023/04/13 04:24:57;;;;;;;1.75;0.50;;;;;;;;;;4955249;29;20148;-65
2023/04/13 04:27:25;;;;;;;1.90;0.63;;;;;;;;;;4954956;28;20027;-66
2023/04/13 04:29:50;;;;;;;2.35;0.60;;;;;;;;;;4955217;29;20019;-68
2023/04/13 04:32:17;;;;;;;1.92;0.70;;;;;;;;;;4955321;29;20081;-65
2023/04/13 04:34:42;;;;;;;0.93;0.45;;;;;;;;;;4955118;29;20023;-64
2023/04/13 04:37:07;;;;;;;2.80;0.60;;;;;;;;;;4954477;29;20020;-64
2023/04/13 04:39:34;;;;;;;2.67;0.60;;;;;;;;;;4955229;29;20030;-67
2023/04/13 04:42:02;;;;;;;2.08;0.60;;;;;;;;;;4954245;28;20491;-65
2023/04/13 04:44:29;;;;;;;1.20;0.50;;;;;;;;;;4955938;29;20050;-67
2023/04/13 04:46:55;;;;;;;2.47;0.70;;;;;;;;;;4957569;29;20553;-67
2023/04/13 04:49:20;;;;;;;2.10;0.50;;;;;;;;;;4960680;28;20551;-65
2023/04/13 04:51:46;;;;;;;3.53;0.70;;;;;;;;;;4964150;28;20027;-66
2023/04/13 04:54:11;;;;;;;2.22;0.70;;;;;;;;;;4964904;29;20495;-67
2023/04/13 04:56:36;;;;;;;2.33;0.70;;;;;;;;;;4962942;29;20020;-66
2023/04/13 04:59:01;;;;;;;1.52;0.47;;;;;;;;;;4964005;29;20062;-68
2023/04/13 05:01:26;;;;;;;2.45;0.52;;;;;;;;;;4959277;29;20039;-67
2023/04/13 05:03:52;;;;;;;2.50;0.50;;;;;;;;;;4960477;28;20027;-67
2023/04/13 05:06:17;;;;;;;2.65;0.50;;;;;;;;;;4964034;29;20027;-67
2023/04/13 05:08:43;;;;;;;1.75;0.60;;;;;;;;;;4962592;29;20378;-66
2023/04/13 05:11:08;;;;;;;1.77;0.50;;;;;;;;;;4961543;28;20387;-66
2023/04/13 05:13:34;;;;;;;2.03;0.60;;;;;;;;;;4970503;29;20513;-66
2023/04/13 05:15:59;;;;;;;1.50;0.60;;;;;;;;;;4966936;29;20024;-66
2023/04/13 05:18:24;;;;;;;2.40;0.60;;;;;;;;;;4961964;29;20037;-66
2023/04/13 05:20:50;;;;;;;2.92;0.60;;;;;;;;;;4960002;28;20390;-68
2023/04/13 05:23:15;;;;;;;4.28;0.80;;;;;;;;;;4974095;28;20069;-67
2023/04/13 05:25:41;;;;;;;3.95;0.90;;;;;;;;;;4972904;28;20210;-66
2023/04/13 05:28:06;;;;;;;2.47;0.70;;;;;;;;;;4973680;28;20412;-66
2023/04/13 05:30:31;;;;;;;1.92;0.60;;;;;;;;;;4973897;28;20023;-66
2023/04/13 05:32:57;;;;;;;3.47;0.73;;;;;;;;;;4973354;28;20031;-66
2023/04/13 05:35:22;;;;;;;2.60;0.73;;;;;;;;;;4973364;28;20418;-65
2023/04/13 05:37:47;;;;;;;3.70;0.77;;;;;;;;;;4973148;28;20054;-66
2023/04/13 05:40:13;;;;;;;3.78;0.90;;;;;;;;;;4972069;28;20399;-65
2023/04/13 05:42:40;;;;;;;2.22;0.60;;;;;;;;;;4972966;28;20393;-66
2023/04/13 05:45:08;;;;;;;2.50;0.80;;;;;;;;;;4973260;28;20027;-66
2023/04/13 05:47:33;;;;;;;2.35;0.60;;;;;;;;;;4972716;28;20023;-67
2023/04/13 05:49:58;;;;;;;5.05;0.60;;;;;;;;;;4972876;28;20042;-67
2023/04/13 05:52:23;;;;;;;2.50;0.70;;;;;;;;;;4973652;28;20483;-65
2023/04/13 05:54:49;;;;;;;3.83;0.60;;;;;;;;;;4972210;28;20034;-65
2023/04/13 05:57:15;;;;;;;1.55;0.60;;;;;;;;;;4972811;28;20069;-68
2023/04/13 05:59:40;;;;;;;2.53;0.70;;;;;;;;;;4973083;28;20462;-69
2023/04/13 06:02:05;;;;;;;1.90;0.60;;;;;;;;;;4972985;28;20030;-68
2023/04/13 06:04:30;;;;;;;1.67;0.52;;;;;;;;;;4972992;28;20390;-68
2023/04/13 06:06:56;;;;;;;3.78;0.73;;;;;;;;;;4972836;28;20018;-66
2023/04/13 06:09:21;;;;;;;3.22;0.50;;;;;;;;;;4972949;28;20101;-65
2023/04/13 06:11:46;;;;;;;2.47;0.40;;;;;;;;;;4973268;28;20026;-66
2023/04/13 06:14:12;;;;;;;1.33;0.50;;;;;;;;;;4974098;28;20445;-66
2023/04/13 06:16:37;;;;;;;1.85;0.50;;;;;;;;;;4973266;28;20494;-66
2023/04/13 06:19:02;;;;;;;2.73;0.70;;;;;;;;;;4973540;28;20023;-68
2023/04/13 06:21:28;;;;;;;2.30;0.60;;;;;;;;;;4965047;28;20066;-66
2023/04/13 06:23:54;;;;;;;2.70;0.55;;;;;;;;;;4955047;28;20471;-66
2023/04/13 06:26:19;;;;;;;3.88;0.60;;;;;;;;;;4952817;29;20130;-66
2023/04/13 06:28:45;;;;;;;2.78;0.50;;;;;;;;;;4953268;29;20073;-66
2023/04/13 06:31:11;;;;;;;2.77;0.70;;;;;;;;;;4953096;28;20023;-65
2023/04/13 06:33:36;;;;;;;2.58;0.60;;;;;;;;;;4952858;29;20030;-67
2023/04/13 06:36:01;;;;;;;2.65;0.55;;;;;;;;;;4953236;29;20035;-65
2023/04/13 06:38:26;;;;;;;2.38;0.50;;;;;;;;;;4953158;29;20511;-66
2023/04/13 06:40:51;;;;;;;3.20;0.50;;;;;;;;;;4953375;29;20035;-67
2023/04/13 06:43:17;;;;;;;2.40;0.50;;;;;;;;;;4953283;29;20023;-68
2023/04/13 06:45:42;;;;;;;2.00;0.50;;;;;;;;;;4952950;28;20546;-66
2023/04/13 06:48:07;;;;;;;2.07;0.57;;;;;;;;;;4952192;28;20035;-67
2023/04/13 06:50:32;;;;;;;3.50;0.60;;;;;;;;;;4953313;29;20027;-65
2023/04/13 06:52:57;;;;;;;2.58;0.50;;;;;;;;;;4952850;29;20196;-69
2023/04/13 06:55:22;;;;;;;3.63;0.53;;;;;;;;;;4953118;29;20368;-65
2023/04/13 06:57:48;;;;;;;3.58;0.70;;;;;;;;;;4952493;29;20110;-66
2023/04/13 07:00:13;;;;;;;3.53;0.60;;;;;;;;;;4953773;29;20024;-67
2023/04/13 07:02:40;;;;;;;2.70;0.52;;;;;;;;;;4953131;29;20028;-66
2023/04/13 07:05:06;;;;;;;;;;;;;;;;;;4953801;28;20118;-68
2023/04/13 07:07:31;;;;;;;2.72;0.50;;;;;;;;;;4958810;28;20395;-65
2023/04/13 07:09:56;;;;;;;2.47;0.50;;;;;;;;;;4959189;29;20026;-67
2023/04/13 07:12:21;;;;;;;2.67;0.55;;;;;;;;;;4959173;28;20502;-65
2023/04/13 07:14:47;;;;;;;3.57;0.50;;;;;;;;;;4959235;28;20029;-67
2023/04/13 07:17:12;;;;;;;2.50;0.60;;;;;;;;;;4958679;28;20557;-67
2023/04/13 07:19:37;;;;;;;1.73;0.37;;;;;;;;;;4959372;29;20974;-66
2023/04/13 07:22:03;;;;;;;1.80;0.47;;;;;;;;;;4974273;28;20073;-67
2023/04/13 07:24:28;;;;;;;3.75;0.80;;;;;;;;;;4979038;28;20019;-65
2023/04/13 07:26:55;;;;;;;4.83;0.70;;;;;;;;;;4979853;28;20030;-66
2023/04/13 07:29:20;;;;;;;1.65;0.50;;;;;;;;;;4981258;28;20433;-66
2023/04/13 07:31:46;;;;;;;3.27;0.80;;;;;;;;;;4995273;28;20027;-68
2023/04/13 07:34:11;;;;;;;4.30;0.90;;;;;;;;;;4996068;28;20066;-68
2023/04/13 07:36:37;;;;;;;2.73;0.50;;;;;;;;;;5001424;28;20027;-67
2023/04/13 07:39:02;;;;;;;3.15;0.50;;;;;;;;;;5002456;28;20035;-70
2023/04/13 07:41:28;;;;;;;2.35;0.60;;;;;;;;;;4997326;28;20031;-67
2023/04/13 07:43:53;;;;;;;2.27;0.67;;;;;;;;;;4995496;28;20563;-65
2023/04/13 07:46:19;;;;;;;3.63;0.60;;;;;;;;;;4978964;28;20379;-66
2023/04/13 07:48:44;;;;;;;3.65;0.50;;;;;;;;;;4979625;28;20071;-66
2023/04/13 07:51:16;;;;;;;4.27;0.60;;;;;;;;;;4978270;28;20130;-66
2023/04/13 07:53:41;;;;;;;2.90;0.57;;;;;;;;;;4978233;28;20026;-67
2023/04/13 07:56:07;;;;;;;2.72;0.43;;;;;;;;;;4977713;28;20025;-69
2023/04/13 07:58:32;;;;;;;3.97;0.60;;;;;;;;;;4978336;28;20094;-68
2023/04/13 08:00:57;;;;;;;2.90;0.63;;;;;;;;;;4978272;28;20037;-65
2023/04/13 08:03:22;;;;;;;2.60;0.55;;;;;;;;;;4978601;28;20110;-66
2023/04/13 08:05:47;;;;;;;2.80;0.60;;;;;;;;;;4980083;28;20027;-65
2023/04/13 08:08:12;;;;;;;3.07;0.70;;;;;;;;;;4978850;28;20026;-66
2023/04/13 08:10:41;;;;;;;4.07;0.70;;;;;;;;;;4978322;28;20046;-66
2023/04/13 08:13:06;;;;;;;2.78;0.60;;;;;;;;;;4978374;28;20500;-66
2023/04/13 08:15:31;;;;;;;3.90;0.67;;;;;;;;;;4978689;28;20134;-67
2023/04/13 08:17:58;;;;;;;2.07;0.60;;;;;;;;;;4974839;28;20440;-68
2023/04/13 08:20:23;;;;;;;2.60;0.50;;;;;;;;;;4973574;28;20015;-65
2023/04/13 08:22:48;;;;;;;3.80;0.60;;;;;;;;;;4955853;29;20082;-67
2023/04/13 08:25:14;;;;;;;3.28;0.70;;;;;;;;;;4956350;29;20027;-66
2023/04/13 08:27:39;;;;;;;4.13;0.77;;;;;;;;;;4956199;29;20046;-66
2023/04/13 08:30:06;;;;;;;2.33;0.60;;;;;;;;;;4956158;29;20034;-67
2023/04/13 08:32:31;;;;;;;2.83;0.63;;;;;;;;;;4955744;28;20038;-66
2023/04/13 08:34:57;;;;;;;2.73;0.63;;;;;;;;;;4955716;29;20015;-67
2023/04/13 08:37:23;;;;;;;4.32;0.90;;;;;;;;;;4955566;28;20027;-68
2023/04/13 08:39:50;;;;;;;3.85;0.85;;;;;;;;;;4955743;29;20097;-67
2023/04/13 08:42:16;;;;;;;4.30;0.73;;;;;;;;;;4955642;29;20031;-66
2023/04/13 08:44:43;;;;;;;3.65;0.63;;;;;;;;;;4955299;29;20015;-66
2023/04/13 08:47:08;;;;;;;4.95;0.60;;;;;;;;;;4956279;29;20043;-66
2023/04/13 08:49:36;;;;;;;3.50;0.65;;;;;;;;;;4955143;29;20035;-67
2023/04/13 08:52:04;;;;;;;2.35;0.57;;;;;;;;;;4953905;29;20102;-67
2023/04/13 08:54:29;;;;;;;4.38;0.98;;;;;;;;;;4955297;29;20019;-67
2023/04/13 08:56:55;;;;;;;3.43;0.90;;;;;;;;;;4955257;28;20022;-66
2023/04/13 08:59:21;;;;;;;3.30;0.70;;;;;;;;;;4955593;29;20487;-66
2023/04/13 09:01:47;;;;;;;4.03;1.02;;;;;;;;;;4956866;28;20630;-65
2023/04/13 09:04:16;;;;;;;2.88;0.55;;;;;;;;;;4958891;29;20058;-66
2023/04/13 09:06:41;;;;;;;3.08;0.70;;;;;;;;;;4960312;29;20103;-67
2023/04/13 09:09:13;;;;;;;4.53;0.70;;;;;;;;;;4961514;29;20064;-66
2023/04/13 09:11:38;;;;;;;3.13;0.73;;;;;;;;;;4964633;29;20043;-67
2023/04/13 09:14:03;;;;;;;3.30;0.70;;;;;;;;;;4966274;29;20439;-68
2023/04/13 09:16:29;;;;;;;2.47;0.80;;;;;;;;;;4964929;29;20019;-65
2023/04/13 09:18:55;;;;;;;2.88;0.60;;;;;;;;;;4969224;29;20027;-65
2023/04/13 09:21:21;;;;;;;2.42;0.70;;;;;;;;;;4974296;28;20034;-65
2023/04/13 09:23:57;;;;;;;3.45;0.75;;;;;;;;;;4983397;28;20380;-66
2023/04/13 09:26:22;;;;;;;1.98;0.60;;;;;;;;;;4986821;28;20054;-66
2023/04/13 09:28:48;;;;;;;4.72;0.70;;;;;;;;;;4986160;28;20023;-64
2023/04/13 09:31:14;;;;;;;4.22;0.60;;;;;;;;;;4985619;28;20019;-68
2023/04/13 09:33:46;;;;;;;3.72;0.60;;;;;;;;;;4980783;28;20054;-65
2023/04/13 09:36:11;;;;;;;;;;;;;;;;;;4978244;28;20141;-66
2023/04/13 09:38:37;;;;;;;2.80;0.68;;;;;;;;;;4976891;28;19906;-66
2023/04/13 09:41:02;;;;;;;1.77;0.40;;;;;;;;;;4976692;28;20031;-68
2023/04/13 09:43:39;;;;;;;3.75;0.80;;;;;;;;;;4981531;28;20158;-65
2023/04/13 09:46:10;;;;;;;2.90;0.65;;;;;;;;;;4982020;28;20019;-66
2023/04/13 09:51:19;;;;;;;2.45;0.60;;;;;;;;;;4977861;28;20050;-67
2023/04/13 09:53:48;;;;;;;2.50;0.60;;;;;;;;;;4978394;28;20019;-66
2023/04/13 09:56:14;;;;;;;4.75;0.80;;;;;;;;;;4978905;28;20037;-66
2023/04/13 09:58:41;;;;;;;4.63;1.40;;;;;;;;;;4978312;28;20582;-67
2023/04/13 10:01:08;;;;;;;4.55;0.95;;;;;;;;;;4978180;28;20026;-67
2023/04/13 10:03:34;;;;;;;4.22;0.60;;;;;;;;;;4976141;28;20066;-66
2023/04/13 10:05:59;;;;;;;3.70;0.60;;;;;;;;;;4976086;28;20146;-66
2023/04/13 10:08:25;;;;;;;2.17;0.70;;;;;;;;;;4977061;28;20157;-65
2023/04/13 10:10:50;;;;;;;4.03;1.00;;;;;;;;;;4976296;28;20022;-67
2023/04/13 10:13:21;;;;;;;3.30;0.82;;;;;;;;;;4973433;28;20443;-65
2023/04/13 10:15:46;;;;;;;3.03;0.68;;;;;;;;;;4973582;28;20030;-67
2023/04/13 10:18:11;;;;;;;3.25;0.60;;;;;;;;;;4975928;28;20019;-67
2023/04/13 10:20:37;;;;;;;2.90;0.80;;;;;;;;;;4985924;28;20014;-68
2023/04/13 10:23:03;;;;;;;3.63;0.65;;;;;;;;;;4993116;28;20063;-66
2023/04/13 10:25:28;;;;;;;3.22;0.80;;;;;;;;;;4993254;28;20030;-66
2023/04/13 10:27:58;;;;;;;2.80;0.70;;;;;;;;;;4993039;28;20034;-68
2023/04/13 10:30:24;;;;;;;4.28;1.00;;;;;;;;;;4995126;28;20449;-66
2023/04/13 10:33:00;;;;;;;4.30;0.90;;;;;;;;;;4979965;28;20018;-65
2023/04/13 10:35:25;;;;;;;3.22;0.80;;;;;;;;;;4973644;28;20019;-67
2023/04/13 10:37:57;;;;;;;4.67;1.13;;;;;;;;;;4972658;28;20025;-67
2023/04/13 10:40:22;;;;;;;3.75;0.80;;;;;;;;;;4972505;28;20558;-66
2023/04/13 10:42:47;;;;;;;4.13;0.85;;;;;;;;;;4972894;28;20037;-65
2023/04/13 10:45:17;;;;;;;3.67;0.60;;;;;;;;;;4972794;28;20030;-66
2023/04/13 10:47:42;;;;;;;3.15;0.70;;;;;;;;;;4971723;28;20026;-67
2023/04/13 10:50:14;;;;;;;4.63;0.80;;;;;;;;;;4972038;28;20023;-66
2023/04/13 10:52:40;;;;;;;3.30;0.90;;;;;;;;;;4972416;28;20395;-68
2023/04/13 10:55:07;;;;;;;2.97;0.70;;;;;;;;;;4972546;28;20021;-67
2023/04/13 10:57:33;;;;;;;2.25;0.70;;;;;;;;;;4971634;28;20037;-67
2023/04/13 10:59:58;;;;;;;3.17;0.82;;;;;;;;;;4971934;28;20033;-68
2023/04/13 11:02:24;;;;;;;2.08;0.60;;;;;;;;;;4971795;28;20734;-68
2023/04/13 11:04:50;;;;;;;3.30;0.70;;;;;;;;;;4971921;28;20559;-67
2023/04/13 11:07:18;;;;;;;3.38;0.73;;;;;;;;;;4971768;28;20093;-67
2023/04/13 11:09:44;;;;;;;2.90;0.70;;;;;;;;;;4971905;28;20015;-66
2023/04/13 11:12:13;;;;;;;3.63;0.75;;;;;;;;;;4970905;28;20077;-67
2023/04/13 11:14:38;;;;;;;2.90;0.65;;;;;;;;;;4971906;28;20069;-67
2023/04/13 11:17:05;;;;;;;3.67;0.70;;;;;;;;;;4971084;28;20495;-67
2023/04/13 11:19:30;;;;;;;2.78;0.65;;;;;;;;;;4971816;28;20384;-66
2023/04/13 11:21:56;;;;;;;3.63;0.70;;;;;;;;;;4958143;28;20028;-67
2023/04/13 11:24:25;;;;;;;3.38;0.70;;;;;;;;;;4952709;29;20111;-65
2023/04/13 11:26:51;;;;;;;3.63;0.60;;;;;;;;;;4952194;29;20015;-66
2023/04/13 11:29:17;;;;;;;4.07;0.73;;;;;;;;;;4952659;29;20011;-65
2023/04/13 11:31:42;;;;;;;2.30;0.60;;;;;;;;;;4952642;29;20078;-66
2023/04/13 11:34:11;;;;;;;3.47;0.73;;;;;;;;;;4952562;29;20023;-67
2023/04/13 11:36:41;;;;;;;2.30;0.55;;;;;;;;;;4955824;28;20114;-67
2023/04/13 11:39:06;;;;;;;4.85;0.70;;;;;;;;;;4952325;28;20390;-66
2023/04/13 11:41:32;;;;;;;1.77;0.52;;;;;;;;;;4952453;28;20024;-66
2023/04/13 11:44:01;;;;;;;3.08;0.60;;;;;;;;;;4952023;28;20107;-68
2023/04/13 11:46:27;;;;;;;5.05;0.90;;;;;;;;;;4952046;28;20032;-66
2023/04/13 11:48:53;;;;;;;3.13;0.60;;;;;;;;;;4952145;28;20050;-66
2023/04/13 11:51:20;;;;;;;2.97;0.60;;;;;;;;;;4952206;28;20404;-67
2023/04/13 11:53:46;;;;;;;3.58;0.80;;;;;;;;;;4955000;28;20525;-66
2023/04/13 11:56:11;;;;;;;3.78;0.90;;;;;;;;;;4955534;28;20487;-65
2023/04/13 11:58:37;;;;;;;2.47;0.65;;;;;;;;;;4955593;28;20027;-67
2023/04/13 12:01:06;;;;;;;1.92;0.60;;;;;;;;;;4956484;28;20082;-67
2023/04/13 12:03:32;;;;;;;4.85;1.10;;;;;;;;;;4955943;28;20039;-68
2023/04/13 12:06:00;;;;;;;5.70;0.88;;;;;;;;;;4955713;28;20152;-66
2023/04/13 12:08:27;;;;;;;4.30;0.80;;;;;;;;;;4955244;28;20082;-66
2023/04/13 12:10:59;;;;;;;2.95;0.60;;;;;;;;;;4955850;28;20026;-66
2023/04/13 12:13:24;;;;;;;4.22;0.70;;;;;;;;;;4955710;28;20111;-66
2023/04/13 12:15:51;;;;;;;2.00;0.60;;;;;;;;;;4956136;28;20047;-64
2023/04/13 12:18:17;;;;;;;2.13;0.60;;;;;;;;;;4955395;28;20110;-66
2023/04/13 12:20:44;;;;;;;3.28;0.68;;;;;;;;;;4962652;28;20023;-66
2023/04/13 12:23:16;;;;;;;4.07;0.70;;;;;;;;;;4974783;28;20026;-66
2023/04/13 12:25:52;;;;;;;3.42;0.90;;;;;;;;;;4974276;28;20035;-66
2023/04/13 12:28:17;;;;;;;2.88;0.68;;;;;;;;;;4974511;28;20471;-67
2023/04/13 12:30:44;;;;;;;3.95;0.70;;;;;;;;;;4974448;28;20026;-66
2023/04/13 12:33:11;;;;;;;3.50;0.60;;;;;;;;;;4974622;28;20057;-65
2023/04/13 12:35:36;;;;;;;5.85;0.82;;;;;;;;;;4974507;28;20031;-66
2023/04/13 12:38:01;;;;;;;3.70;0.80;;;;;;;;;;4973842;28;20077;-67
2023/04/13 12:40:26;;;;;;;3.33;0.77;;;;;;;;;;4974239;28;20029;-66
2023/04/13 12:42:51;;;;;;;4.03;0.57;;;;;;;;;;4974546;28;20235;-66
2023/04/13 12:45:16;;;;;;;3.87;0.80;;;;;;;;;;4974498;28;20476;-65
2023/04/13 12:47:42;;;;;;;3.93;0.70;;;;;;;;;;4973781;28;20031;-67
2023/04/13 12:50:10;;;;;;;3.40;0.60;;;;;;;;;;4973878;28;20491;-68
2023/04/13 12:52:36;;;;;;;4.13;0.80;;;;;;;;;;4973993;28;20491;-67
2023/04/13 12:55:01;;;;;;;3.55;0.70;;;;;;;;;;4974034;28;20077;-66
2023/04/13 12:57:27;;;;;;;4.17;0.63;;;;;;;;;;4973905;28;20015;-65
2023/04/13 12:59:52;;;;;;;2.55;0.80;;;;;;;;;;4973932;28;20542;-67
2023/04/13 13:02:17;;;;;;;2.25;0.57;;;;;;;;;;4974064;28;20031;-66
2023/04/13 13:04:42;;;;;;;3.33;0.70;;;;;;;;;;4973636;28;20023;-66
2023/04/13 13:07:08;;;;;;;2.87;0.70;;;;;;;;;;4973502;28;20546;-67
2023/04/13 13:09:33;;;;;;;3.50;0.68;;;;;;;;;;4975199;28;20380;-67
2023/04/13 13:11:58;;;;;;;2.23;0.50;;;;;;;;;;4974101;28;20537;-66
2023/04/13 13:14:23;;;;;;;1.77;0.60;;;;;;;;;;4973953;28;20421;-68
2023/04/13 13:16:49;;;;;;;2.38;0.60;;;;;;;;;;4973611;28;20050;-66
2023/04/13 13:19:14;;;;;;;3.65;0.80;;;;;;;;;;4974912;28;20113;-65
2023/04/13 13:21:39;;;;;;;2.50;0.60;;;;;;;;;;4974066;28;20034;-67
2023/04/13 13:24:05;;;;;;;3.17;0.63;;;;;;;;;;4973340;28;20027;-66
2023/04/13 13:26:30;;;;;;;3.65;0.93;;;;;;;;;;4973820;28;20125;-66
2023/04/13 13:28:55;;;;;;;3.77;0.80;;;;;;;;;;4969706;28;20030;-66
2023/04/13 13:31:20;;;;;;;3.53;0.70;;;;;;;;;;4974221;28;20113;-67
2023/04/13 13:33:45;;;;;;;3.20;0.90;;;;;;;;;;4973731;28;20015;-68
2023/04/13 13:36:12;;;;;;;4.40;0.85;;;;;;;;;;4973420;28;20360;-66
2023/04/13 13:38:37;;;;;;;1.83;0.60;;;;;;;;;;4973485;28;20033;-68
2023/04/13 13:41:03;;;;;;;3.38;0.60;;;;;;;;;;4973942;28;20102;-65
2023/04/13 13:43:28;;;;;;;3.97;0.90;;;;;;;;;;4973623;28;20090;-67
2023/04/13 13:45:53;;;;;;;2.72;0.70;;;;;;;;;;4973779;28;20479;-66
2023/04/13 13:48:18;;;;;;;3.53;0.70;;;;;;;;;;4972769;28;20019;-67
2023/04/13 13:50:43;;;;;;;4.40;0.70;;;;;;;;;;4973394;28;20046;-66
2023/04/13 13:53:08;;;;;;;3.92;1.00;;;;;;;;;;4973735;28;20050;-66
2023/04/13 13:55:33;;;;;;;3.90;0.80;;;;;;;;;;4973968;28;20035;-66
2023/04/13 13:57:59;;;;;;;2.80;1.07;;;;;;;;;;4973060;28;20027;-65
2023/04/13 14:00:24;;;;;;;4.53;0.87;;;;;;;;;;4972762;28;20019;-66
2023/04/13 14:02:50;;;;;;;4.45;0.80;;;;;;;;;;4973200;28;20047;-66
2023/04/13 14:05:15;;;;;;;4.90;0.80;;;;;;;;;;4988073;28;20018;-67
2023/04/13 14:07:41;;;;;;;3.38;0.82;;;;;;;;;;4972551;28;20022;-67
2023/04/13 14:10:07;;;;;;;4.72;0.80;;;;;;;;;;4972932;28;20173;-67
2023/04/13 14:12:33;;;;;;;4.65;0.90;;;;;;;;;;4972859;28;20035;-66
2023/04/13 14:14:58;;;;;;;3.28;0.70;;;;;;;;;;4972408;28;20023;-69
2023/04/13 14:17:23;;;;;;;2.97;0.70;;;;;;;;;;4972604;28;20022;-66
2023/04/13 14:19:48;;;;;;;4.10;0.93;;;;;;;;;;4972572;28;20101;-66
2023/04/13 14:22:13;;;;;;;2.75;0.65;;;;;;;;;;4972742;28;20030;-66
2023/04/13 14:24:38;;;;;;;3.73;0.80;;;;;;;;;;4974340;28;20110;-65
2023/04/13 14:27:04;;;;;;;4.17;0.93;;;;;;;;;;4972785;28;20043;-67
2023/04/13 14:29:29;;;;;;;2.90;0.70;;;;;;;;;;4972361;28;20101;-68
2023/04/13 14:31:54;;;;;;;4.57;0.88;;;;;;;;;;4972680;28;20081;-67
2023/04/13 14:34:19;;;;;;;2.83;0.63;;;;;;;;;;4972419;28;20398;-66
2023/04/13 14:36:44;;;;;;;2.63;0.60;;;;;;;;;;4971759;28;20034;-66
2023/04/13 14:39:10;;;;;;;3.50;0.60;;;;;;;;;;4972352;28;20027;-66